Time;durP1;ratioP1;P1;durP2;ratioP2;P2;SDS_P1;SDS_P2;PMS_P1;PMS_P2;Temp;Humidity;BMP_temperature;BMP_pressure;BME280_temperature;BME280_humidity;BME280_pressure;Samples;Min_cycle;Max_cycle;Signal;HPM_P1;HPM_P2
2022/06/25 00:00:23;;;;;;;3.70;1.47;;;;;;;18.89;76.34;100027.50;5078161;28;20422;-74
2022/06/25 00:02:48;;;;;;;2.67;1.23;;;;;;;18.91;76.46;100031.56;5087784;28;20394;-74
2022/06/25 00:05:29;;;;;;;4.60;1.10;;;;;;;18.90;76.46;100034.63;5079755;28;20435;-74
2022/06/25 00:07:55;;;;;;;3.47;0.90;;;;;;;18.85;76.57;100032.00;5080478;28;20414;-74
2022/06/25 00:10:21;;;;;;;1.63;1.00;;;;;;;18.93;76.06;100034.84;5090515;28;20397;-75
2022/06/25 00:12:46;;;;;;;2.30;1.30;;;;;;;19.06;76.13;100038.66;5082188;28;20419;-74
2022/06/25 00:15:12;;;;;;;3.80;0.90;;;;;;;19.16;76.03;100038.41;5087157;28;20382;-74
2022/06/25 00:17:38;;;;;;;1.50;1.20;;;;;;;19.20;76.13;100036.63;5090782;28;20401;-74
2022/06/25 00:20:04;;;;;;;1.60;1.10;;;;;;;19.22;75.96;100036.34;5072377;28;20806;-74
2022/06/25 00:22:29;;;;;;;1.48;1.20;;;;;;;19.17;75.98;100040.00;5086754;28;20741;-74
2022/06/25 00:24:54;;;;;;;1.00;1.00;;;;;;;19.14;75.70;100043.38;5069983;28;20491;-74
2022/06/25 00:27:20;;;;;;;1.23;1.13;;;;;;;19.13;76.08;100052.75;5090762;28;20478;-74
2022/06/25 00:29:45;;;;;;;3.85;1.20;;;;;;;19.15;76.12;100048.56;5072424;28;20417;-74
2022/06/25 00:32:10;;;;;;;2.60;1.17;;;;;;;19.18;75.98;100052.63;5083363;28;20491;-75
2022/06/25 00:34:37;;;;;;;1.20;1.10;;;;;;;19.15;75.71;100062.31;5072242;28;20924;-74
2022/06/25 00:37:02;;;;;;;1.50;1.33;;;;;;;19.01;75.73;100061.53;5089044;28;20722;-74
2022/06/25 00:39:28;;;;;;;2.43;0.97;;;;;;;18.92;75.96;100063.41;5074093;28;20426;-74
2022/06/25 00:41:53;;;;;;;2.90;1.37;;;;;;;18.91;75.96;100056.28;5080348;28;20433;-75
2022/06/25 00:44:18;;;;;;;3.30;1.23;;;;;;;18.81;76.21;100056.50;5079667;28;20396;-74
2022/06/25 00:46:47;;;;;;;2.33;0.97;;;;;;;18.76;76.15;100055.81;5079361;28;20408;-74
2022/06/25 00:49:13;;;;;;;5.20;1.00;;;;;;;18.69;76.57;100058.97;5086525;28;20760;-75
2022/06/25 00:51:40;;;;;;;1.50;0.90;;;;;;;18.71;76.42;100061.41;5088419;28;20470;-74
2022/06/25 00:54:09;;;;;;;2.40;1.00;;;;;;;18.74;76.16;100063.56;5084018;28;20382;-74
2022/06/25 00:56:38;;;;;;;2.30;1.10;;;;;;;18.79;76.15;100058.75;5083226;28;20404;-74
2022/06/25 00:59:05;;;;;;;1.70;0.90;;;;;;;18.74;75.97;100064.34;5094013;28;20378;-74
2022/06/25 01:01:32;;;;;;;1.98;1.10;;;;;;;18.75;76.19;100062.41;5093018;28;20901;-74
2022/06/25 01:03:58;;;;;;;2.10;1.60;;;;;;;18.77;76.23;100063.72;5087601;28;20869;-74
2022/06/25 01:06:23;;;;;;;1.07;1.03;;;;;;;18.76;76.01;100066.78;5086753;28;20411;-74
2022/06/25 01:08:49;;;;;;;2.70;1.00;;;;;;;18.72;75.88;100057.53;5094049;28;20467;-74
2022/06/25 01:11:14;;;;;;;3.53;0.83;;;;;;;18.65;76.26;100056.03;5091123;28;20386;-75
2022/06/25 01:13:40;;;;;;;2.57;1.00;;;;;;;18.63;76.18;100051.97;5069373;28;20435;-74
2022/06/25 01:16:05;;;;;;;1.60;1.00;;;;;;;18.64;75.95;100059.06;5085881;28;20445;-74
2022/06/25 01:18:30;;;;;;;3.10;1.10;;;;;;;18.70;76.11;100062.53;5064725;28;20402;-75
2022/06/25 01:20:55;;;;;;;3.30;0.90;;;;;;;18.70;75.90;100062.53;5070557;28;20408;-75
2022/06/25 01:23:21;;;;;;;1.53;1.10;;;;;;;18.74;76.06;100066.31;5084200;28;20433;-74
2022/06/25 01:25:47;;;;;;;4.13;1.00;;;;;;;18.79;75.56;100063.44;5074597;28;20888;-74
2022/06/25 01:28:12;;;;;;;3.53;1.07;;;;;;;18.73;75.67;100056.44;5088379;28;20402;-75
2022/06/25 01:30:37;;;;;;;1.90;1.10;;;;;;;18.72;75.93;100065.78;5093283;28;20493;-75
2022/06/25 01:33:06;;;;;;;3.30;0.80;;;;;;;18.70;75.71;100057.06;5093279;28;20760;-75
2022/06/25 01:35:31;;;;;;;1.10;1.10;;;;;;;18.67;75.76;100054.94;5079489;28;20886;-74
2022/06/25 01:37:56;;;;;;;3.73;1.00;;;;;;;18.70;75.51;100055.13;5084648;28;20433;-74
2022/06/25 01:40:22;;;;;;;0.90;0.90;;;;;;;18.69;75.55;100058.97;5063489;28;20879;-75
2022/06/25 01:42:59;;;;;;;2.35;0.98;;;;;;;18.70;75.58;100057.88;5071596;28;20523;-75
2022/06/25 01:45:36;;;;;;;4.03;0.90;;;;;;;18.74;75.43;100064.34;5083811;28;20415;-74
2022/06/25 01:48:03;;;;;;;2.13;0.93;;;;;;;18.79;75.76;100066.19;5056760;28;20471;-74
2022/06/25 01:50:29;;;;;;;2.40;1.00;;;;;;;18.84;75.30;100069.63;5072086;28;20501;-74
2022/06/25 01:52:54;;;;;;;1.40;1.05;;;;;;;18.83;75.32;100069.94;5054156;28;20438;-75
2022/06/25 01:55:20;;;;;;;1.97;0.70;;;;;;;18.82;75.17;100071.03;5070367;28;20435;-74
2022/06/25 01:57:46;;;;;;;1.77;0.83;;;;;;;18.87;75.22;100079.97;5076608;28;20893;-74
2022/06/25 02:00:16;;;;;;;3.37;1.00;;;;;;;18.90;75.21;100075.81;5074735;28;20791;-74
2022/06/25 02:02:42;;;;;;;2.40;0.98;;;;;;;18.90;75.19;100079.34;5079470;28;20410;-74
2022/06/25 02:05:09;;;;;;;2.58;0.88;;;;;;;18.87;75.46;100082.72;5088837;28;20382;-75
2022/06/25 02:07:34;;;;;;;2.15;0.98;;;;;;;18.85;75.51;100078.66;5054044;28;20402;-75
2022/06/25 02:09:59;;;;;;;1.80;1.10;;;;;;;18.81;75.58;100077.66;5092571;28;20942;-74
2022/06/25 02:12:25;;;;;;;4.97;0.90;;;;;;;18.80;75.72;100085.09;5082833;28;20454;-74
2022/06/25 02:14:50;;;;;;;3.37;1.17;;;;;;;18.79;75.73;100082.66;5087758;28;20745;-74
2022/06/25 02:17:15;;;;;;;1.67;1.10;;;;;;;18.75;75.85;100079.72;5077558;28;20915;-75
2022/06/25 02:19:41;;;;;;;0.80;0.80;;;;;;;18.72;75.79;100076.75;5078546;28;20447;-75
2022/06/25 02:22:07;;;;;;;2.50;1.08;;;;;;;18.63;75.93;100076.69;5085340;28;20477;-75
2022/06/25 02:24:32;;;;;;;1.60;1.00;;;;;;;18.56;76.12;100084.50;5078858;28;20408;-74
2022/06/25 02:26:57;;;;;;;1.00;1.00;;;;;;;18.52;75.89;100081.56;5078672;28;20408;-74
2022/06/25 02:29:23;;;;;;;0.93;0.93;;;;;;;18.49;75.99;100086.81;5087632;28;20915;-75
2022/06/25 02:31:49;;;;;;;0.70;0.70;;;;;;;18.41;76.01;100087.53;5086681;28;20427;-74
2022/06/25 02:34:14;;;;;;;2.80;0.80;;;;;;;18.42;76.04;100083.69;5072920;28;20463;-75
2022/06/25 02:36:39;;;;;;;4.37;1.03;;;;;;;18.34;75.91;100082.44;5059506;28;20408;-75
2022/06/25 02:39:05;;;;;;;3.07;1.20;;;;;;;18.36;76.06;100088.47;5091692;28;20382;-75
2022/06/25 02:41:30;;;;;;;3.73;1.10;;;;;;;18.40;76.02;100085.91;5062389;28;21347;-74
2022/06/25 02:43:55;;;;;;;1.90;1.10;;;;;;;18.43;75.89;100086.13;5081270;28;20487;-74
2022/06/25 02:46:20;;;;;;;2.28;0.90;;;;;;;18.48;75.82;100083.25;5085112;28;20913;-75
2022/06/25 02:48:46;;;;;;;2.43;1.00;;;;;;;18.56;75.50;100090.00;5072975;28;20404;-75
2022/06/25 02:51:11;;;;;;;2.53;1.17;;;;;;;18.58;75.23;100088.56;5080394;28;20820;-74
2022/06/25 02:53:36;;;;;;;2.00;1.10;;;;;;;18.55;75.70;100089.19;5073527;28;20409;-74
2022/06/25 02:58:56;;;;;;;2.40;1.02;;;;;;;18.53;76.00;100090.63;5075141;28;20446;-75
2022/06/25 03:01:22;;;;;;;2.33;0.80;;;;;;;18.50;76.05;100102.22;5091670;28;20799;-74
2022/06/25 03:03:48;;;;;;;2.70;0.90;;;;;;;18.48;75.78;100096.97;5081579;28;20418;-74
2022/06/25 03:06:13;;;;;;;4.27;1.13;;;;;;;18.49;75.98;100103.28;5087685;28;20439;-75
2022/06/25 03:08:39;;;;;;;3.78;1.02;;;;;;;18.51;76.28;100103.81;5076078;28;20525;-74
2022/06/25 03:11:05;;;;;;;2.40;0.80;;;;;;;18.50;76.14;100097.53;5085933;28;20746;-75
2022/06/25 03:13:33;;;;;;;2.00;0.90;;;;;;;18.52;75.99;100099.97;5072706;28;20388;-74
2022/06/25 03:15:59;;;;;;;3.13;1.00;;;;;;;18.50;75.85;100100.28;5073912;28;20395;-74
2022/06/25 03:18:25;;;;;;;2.50;1.00;;;;;;;18.52;75.84;100094.47;5091088;28;20918;-74
2022/06/25 03:20:50;;;;;;;1.30;0.87;;;;;;;18.55;75.64;100102.09;5091439;28;20386;-75
2022/06/25 03:23:16;;;;;;;1.30;0.90;;;;;;;18.56;75.90;100096.31;5075627;28;20494;-75
2022/06/25 03:25:41;;;;;;;2.03;1.92;;;;;;;18.56;75.79;100098.25;5086912;28;20390;-75
2022/06/25 03:28:06;;;;;;;44.73;35.60;;;;;;;18.58;75.62;100096.00;5090485;28;20467;-75
2022/06/25 03:30:32;;;;;;;149.83;104.20;;;;;;;18.57;75.68;100099.88;5078860;28;20404;-74
2022/06/25 03:32:57;;;;;;;180.80;130.50;;;;;;;18.57;75.84;100097.13;5084961;28;20391;-74
2022/06/25 03:35:22;;;;;;;58.10;44.03;;;;;;;18.55;75.74;100096.59;5071627;28;20398;-74
2022/06/25 03:37:47;;;;;;;35.67;27.87;;;;;;;18.55;75.91;100102.91;5088558;28;20382;-75
2022/06/25 03:40:13;;;;;;;24.53;17.43;;;;;;;18.54;76.07;100098.53;5080246;28;20402;-75
2022/06/25 03:42:38;;;;;;;121.30;68.30;;;;;;;18.53;76.08;100110.66;5088295;28;20440;-74
2022/06/25 03:45:04;;;;;;;193.70;115.07;;;;;;;18.54;76.27;100106.75;5083588;28;20378;-75
2022/06/25 03:47:29;;;;;;;57.13;33.77;;;;;;;18.52;75.74;100103.53;5090002;28;20394;-74
2022/06/25 03:49:55;;;;;;;61.23;35.77;;;;;;;18.52;75.66;100116.44;5074118;28;20409;-74
2022/06/25 03:52:20;;;;;;;37.33;22.80;;;;;;;18.54;75.38;100116.94;5071314;28;20770;-75
2022/06/25 03:54:45;;;;;;;13.20;9.37;;;;;;;18.50;75.63;100116.75;5072317;28;20412;-75
2022/06/25 03:57:11;;;;;;;8.37;4.23;;;;;;;18.52;75.24;100116.44;5071394;28;20923;-75
2022/06/25 03:59:36;;;;;;;11.65;6.28;;;;;;;18.54;75.14;100119.69;5078330;28;20518;-75
2022/06/25 04:02:02;;;;;;;28.77;17.17;;;;;;;18.54;75.31;100122.44;5077876;28;20406;-75
2022/06/25 04:04:27;;;;;;;6.53;5.13;;;;;;;18.48;75.28;100124.41;5090952;28;20382;-74
2022/06/25 04:06:52;;;;;;;2.45;2.25;;;;;;;18.45;75.59;100121.47;5072696;28;20421;-74
2022/06/25 04:09:18;;;;;;;2.43;1.40;;;;;;;18.44;75.70;100128.88;5066068;28;20499;-75
2022/06/25 04:11:43;;;;;;;2.57;1.00;;;;;;;18.39;75.38;100122.69;5082236;28;20402;-74
2022/06/25 04:14:09;;;;;;;2.13;1.67;;;;;;;18.43;75.33;100123.72;5090973;28;20445;-74
2022/06/25 04:16:34;;;;;;;5.63;1.40;;;;;;;18.41;75.64;100131.44;5080760;28;20395;-74
2022/06/25 04:18:59;;;;;;;3.50;1.20;;;;;;;18.35;75.64;100136.22;5071701;28;20482;-74
2022/06/25 04:21:25;;;;;;;5.37;1.20;;;;;;;18.23;76.25;100127.66;5090697;28;20787;-75
2022/06/25 04:23:51;;;;;;;1.97;1.13;;;;;;;18.24;76.12;100128.50;5061977;28;20416;-74
2022/06/25 04:26:16;;;;;;;3.95;1.20;;;;;;;18.26;76.26;100138.03;5051147;28;20640;-75
2022/06/25 04:31:25;;;;;;;1.30;1.20;;;;;;;18.26;76.44;100140.78;5073802;28;20562;-74
2022/06/25 04:33:51;;;;;;;3.13;0.80;;;;;;;18.28;76.13;100149.50;5081087;28;20935;-75
2022/06/25 04:36:16;;;;;;;2.85;1.00;;;;;;;18.29;76.09;100150.31;5076766;28;20396;-74
2022/06/25 04:38:42;;;;;;;3.40;1.00;;;;;;;18.31;75.93;100145.38;5082809;28;20398;-75
2022/06/25 04:41:07;;;;;;;3.10;0.90;;;;;;;18.27;75.99;100153.38;5075598;28;20498;-75
2022/06/25 04:43:32;;;;;;;1.30;1.10;;;;;;;18.31;75.88;100154.38;5094049;28;20417;-74
2022/06/25 04:45:57;;;;;;;1.90;0.80;;;;;;;18.32;75.98;100158.75;5091674;28;20399;-74
2022/06/25 04:48:23;;;;;;;2.20;0.93;;;;;;;18.39;75.67;100150.13;5082528;28;20413;-75
2022/06/25 04:50:48;;;;;;;1.83;1.00;;;;;;;18.43;75.56;100165.69;5078340;28;20397;-75
2022/06/25 04:53:14;;;;;;;2.00;0.83;;;;;;;18.46;75.68;100156.84;5070800;28;20407;-75
2022/06/25 04:55:39;;;;;;;4.25;1.05;;;;;;;18.49;75.53;100156.25;5073764;28;20406;-75
2022/06/25 04:58:04;;;;;;;2.60;0.90;;;;;;;18.54;75.64;100155.38;5074124;28;20400;-75
2022/06/25 05:00:29;;;;;;;3.00;0.80;;;;;;;18.50;75.29;100151.59;5091995;28;20399;-74
2022/06/25 05:02:55;;;;;;;0.80;0.80;;;;;;;18.51;75.59;100148.53;5058277;28;20413;-75
2022/06/25 05:05:20;;;;;;;3.53;1.05;;;;;;;18.53;75.74;100151.00;5074576;28;20471;-74
2022/06/25 05:07:45;;;;;;;3.40;1.00;;;;;;;18.56;75.85;100142.16;5021435;28;20911;-74
2022/06/25 05:10:10;;;;;;;1.63;0.90;;;;;;;18.63;75.76;100143.38;5020746;28;20399;-75
2022/06/25 05:15:20;;;;;;;1.77;1.00;;;;;;;18.69;76.05;100155.06;5027567;28;20394;-75
2022/06/25 05:17:45;;;;;;;2.60;1.10;;;;;;;18.62;76.16;100158.22;5019538;28;20408;-74
2022/06/25 05:20:11;;;;;;;2.40;0.60;;;;;;;18.61;76.02;100153.00;5013682;28;20394;-75
2022/06/25 05:22:37;;;;;;;4.70;1.27;;;;;;;18.58;76.30;100151.69;5016235;28;20757;-75
2022/06/25 05:25:03;;;;;;;2.13;0.93;;;;;;;18.61;76.20;100150.25;5009261;28;20486;-76
2022/06/25 05:27:28;;;;;;;1.35;1.05;;;;;;;18.63;76.12;100148.03;5002822;28;20410;-76
2022/06/25 05:29:53;;;;;;;3.33;0.90;;;;;;;18.63;76.11;100146.13;5015664;28;20412;-76
2022/06/25 05:32:19;;;;;;;2.17;1.10;;;;;;;18.76;75.72;100143.66;5005671;28;20427;-77
2022/06/25 05:34:44;;;;;;;1.45;0.95;;;;;;;18.86;74.96;100149.75;5005528;28;21351;-76
2022/06/25 05:37:10;;;;;;;3.90;1.00;;;;;;;18.90;74.83;100149.97;5024942;28;20407;-76
2022/06/25 05:39:35;;;;;;;2.75;0.80;;;;;;;18.83;75.30;100152.31;5012623;28;20501;-76
2022/06/25 05:42:00;;;;;;;4.23;0.93;;;;;;;18.79;75.87;100159.50;5044448;28;20407;-75
2022/06/25 05:44:26;;;;;;;2.80;0.80;;;;;;;18.85;75.74;100158.28;5021715;28;20874;-75
2022/06/25 05:46:51;;;;;;;1.27;1.00;;;;;;;18.89;75.63;100157.38;5022410;28;20403;-77
2022/06/25 05:49:16;;;;;;;3.37;1.10;;;;;;;18.87;76.17;100156.06;5024438;28;20396;-78
2022/06/25 05:51:41;;;;;;;2.63;0.90;;;;;;;18.90;76.21;100158.19;5024168;28;20497;-78
2022/06/25 05:54:07;;;;;;;3.38;0.95;;;;;;;18.98;75.67;100155.53;5024440;28;20774;-77
2022/06/25 05:56:32;;;;;;;0.80;0.80;;;;;;;19.05;75.26;100164.16;5019649;28;20436;-78
2022/06/25 05:58:57;;;;;;;5.00;1.00;;;;;;;19.12;75.00;100166.50;5006450;28;20772;-78
2022/06/25 06:01:22;;;;;;;3.37;0.83;;;;;;;19.20;74.19;100168.50;5007184;28;20530;-77
2022/06/25 06:03:48;;;;;;;4.20;1.00;;;;;;;19.26;73.99;100169.22;4999692;28;20444;-77
2022/06/25 06:06:14;;;;;;;4.37;1.30;;;;;;;19.24;74.40;100179.69;5011908;28;20411;-78
2022/06/25 06:08:39;;;;;;;1.63;1.05;;;;;;;19.15;74.87;100176.84;4990656;28;20469;-78
2022/06/25 06:11:04;;;;;;;3.60;1.17;;;;;;;19.12;75.04;100175.56;5012671;28;20408;-78
2022/06/25 06:13:29;;;;;;;0.87;0.70;;;;;;;19.22;74.52;100173.69;5019418;28;20422;-78
2022/06/25 06:15:55;;;;;;;0.90;0.90;;;;;;;19.28;74.32;100170.53;5013421;28;20423;-78
2022/06/25 06:18:20;;;;;;;1.90;0.80;;;;;;;19.36;74.22;100174.47;5015268;28;20804;-78
2022/06/25 06:20:45;;;;;;;2.70;0.77;;;;;;;19.43;73.95;100183.94;5014883;28;20687;-78
2022/06/25 06:23:10;;;;;;;0.80;0.73;;;;;;;19.43;74.18;100185.91;5013824;28;20419;-77
2022/06/25 06:25:36;;;;;;;2.40;1.17;;;;;;;19.45;74.44;100186.38;5013025;28;20404;-78
2022/06/25 06:28:01;;;;;;;2.23;1.00;;;;;;;19.51;74.27;100185.13;5019718;28;20413;-78
2022/06/25 06:30:27;;;;;;;2.50;0.60;;;;;;;19.60;72.93;100191.50;5009933;28;20470;-78
2022/06/25 06:32:53;;;;;;;1.77;0.70;;;;;;;19.68;72.78;100193.53;5019313;28;20479;-78
2022/06/25 06:35:18;;;;;;;0.80;0.50;;;;;;;19.72;73.11;100194.53;5013566;28;20833;-77
2022/06/25 06:37:43;;;;;;;3.30;0.83;;;;;;;19.76;72.99;100189.25;5018883;28;20410;-77
2022/06/25 06:40:09;;;;;;;3.10;0.60;;;;;;;19.83;72.70;100189.59;5032106;28;20383;-77
2022/06/25 06:42:35;;;;;;;0.73;0.40;;;;;;;19.91;72.43;100189.66;5029956;28;20433;-77
2022/06/25 06:45:00;;;;;;;1.80;0.60;;;;;;;19.98;72.23;100192.78;5031618;28;20391;-77
2022/06/25 06:47:25;;;;;;;1.90;0.70;;;;;;;20.05;71.52;100184.09;5031639;28;20441;-77
2022/06/25 06:49:51;;;;;;;0.40;0.40;;;;;;;20.07;71.15;100181.84;5031702;28;20445;-77
2022/06/25 06:52:16;;;;;;;0.50;0.50;;;;;;;20.08;70.86;100186.22;5030389;28;20403;-77
2022/06/25 06:54:41;;;;;;;2.47;0.50;;;;;;;20.11;70.34;100188.34;5030032;28;20858;-77
2022/06/25 06:57:07;;;;;;;2.20;0.60;;;;;;;20.14;70.35;100182.22;5031388;28;20396;-77
2022/06/25 06:59:32;;;;;;;0.67;0.67;;;;;;;20.14;70.60;100185.78;5031245;28;20383;-77
2022/06/25 07:01:58;;;;;;;1.13;0.30;;;;;;;20.16;70.87;100188.19;5031573;28;20813;-77
2022/06/25 07:04:23;;;;;;;1.67;0.30;;;;;;;20.18;71.09;100178.53;5026644;28;20850;-77
2022/06/25 07:06:48;;;;;;;0.43;0.43;;;;;;;20.19;70.39;100176.56;5031183;28;20877;-77
2022/06/25 07:09:14;;;;;;;2.00;0.80;;;;;;;20.23;70.16;100179.50;5030159;28;20391;-77
2022/06/25 07:11:39;;;;;;;2.40;0.60;;;;;;;20.28;70.44;100177.47;5025049;28;20509;-77
2022/06/25 07:14:04;;;;;;;1.50;0.40;;;;;;;20.35;70.24;100175.06;5016329;28;20381;-77
2022/06/25 07:16:30;;;;;;;2.30;0.60;;;;;;;20.44;69.16;100175.09;5031398;28;20394;-77
2022/06/25 07:18:57;;;;;;;1.50;0.52;;;;;;;20.46;68.38;100175.59;5031375;28;20405;-77
2022/06/25 07:21:24;;;;;;;3.25;0.60;;;;;;;20.49;68.68;100178.53;5031223;28;20391;-77
2022/06/25 07:23:49;;;;;;;1.30;0.40;;;;;;;20.53;68.60;100179.53;5030628;28;20852;-77
2022/06/25 07:26:15;;;;;;;0.40;0.40;;;;;;;20.58;68.78;100176.63;5031257;28;20444;-77
2022/06/25 07:28:40;;;;;;;0.50;0.50;;;;;;;20.61;68.39;100170.47;5031234;28;20394;-76
2022/06/25 07:31:05;;;;;;;0.43;0.43;;;;;;;20.64;67.83;100172.63;5031052;28;20488;-76
2022/06/25 07:33:31;;;;;;;1.20;0.40;;;;;;;20.69;67.84;100158.69;5021522;28;20396;-75
2022/06/25 07:35:57;;;;;;;0.57;0.57;;;;;;;20.75;66.76;100166.81;5027312;28;20480;-76
2022/06/25 07:38:23;;;;;;;1.10;0.60;;;;;;;20.78;66.09;100164.22;5005107;28;20411;-76
2022/06/25 07:40:48;;;;;;;1.03;0.40;;;;;;;20.79;66.22;100159.50;5013694;28;20398;-76
2022/06/25 07:43:14;;;;;;;1.50;0.40;;;;;;;20.82;66.44;100150.63;5029596;28;20945;-76
2022/06/25 07:45:40;;;;;;;3.15;0.70;;;;;;;20.87;66.97;100151.28;5028132;28;20469;-76
2022/06/25 07:48:06;;;;;;;0.83;0.50;;;;;;;20.95;66.30;100150.47;5031112;28;20470;-76
2022/06/25 07:53:15;;;;;;;0.80;0.50;;;;;;;21.04;65.64;100147.78;5030731;28;20389;-76
2022/06/25 07:55:40;;;;;;;0.43;0.40;;;;;;;21.09;65.70;100145.69;5017336;28;20746;-76
2022/06/25 07:58:05;;;;;;;0.77;0.47;;;;;;;21.15;65.86;100140.81;5030935;28;20397;-76
2022/06/25 08:00:31;;;;;;;1.70;0.60;;;;;;;21.20;66.06;100137.94;5030766;28;20391;-76
2022/06/25 08:02:56;;;;;;;1.23;0.50;;;;;;;21.21;65.61;100140.34;5015305;28;20424;-76
2022/06/25 08:05:21;;;;;;;2.10;0.60;;;;;;;21.23;64.99;100134.53;5015867;28;20400;-76
2022/06/25 08:07:48;;;;;;;2.43;0.30;;;;;;;21.23;64.65;100137.28;5034882;28;20806;-76
2022/06/25 08:10:13;;;;;;;6.35;0.68;;;;;;;21.31;64.98;100132.88;5034441;28;20402;-76
2022/06/25 08:12:39;;;;;;;0.80;0.43;;;;;;;21.43;64.87;100139.41;5034787;28;20387;-75
2022/06/25 08:15:07;;;;;;;2.00;0.47;;;;;;;21.50;63.92;100134.22;5034173;28;20811;-76
2022/06/25 08:17:34;;;;;;;1.38;0.40;;;;;;;21.54;63.76;100137.09;5034621;28;20391;-75
2022/06/25 08:19:59;;;;;;;1.15;0.95;;;;;;;21.57;63.49;100139.25;5034575;28;20391;-76
2022/06/25 08:22:25;;;;;;;1.63;0.57;;;;;;;21.56;63.84;100132.91;5049867;28;20461;-76
2022/06/25 08:24:50;;;;;;;1.27;0.80;;;;;;;21.63;63.66;100138.75;5033892;28;20403;-76
2022/06/25 08:27:15;;;;;;;0.57;0.57;;;;;;;21.71;63.04;100137.91;5034570;28;20677;-76
2022/06/25 08:29:40;;;;;;;1.00;0.70;;;;;;;21.82;62.60;100138.38;5032926;28;20489;-76
2022/06/25 08:32:06;;;;;;;0.60;0.60;;;;;;;21.96;62.81;100132.72;5024438;28;20427;-76
2022/06/25 08:34:32;;;;;;;2.35;0.70;;;;;;;22.06;61.75;100137.88;5030884;28;20383;-76
2022/06/25 08:36:57;;;;;;;0.63;0.57;;;;;;;22.15;61.20;100138.66;5033467;28;20398;-75
2022/06/25 08:39:23;;;;;;;0.60;0.60;;;;;;;22.26;60.67;100131.66;5042348;28;20498;-76
2022/06/25 08:41:48;;;;;;;1.30;0.70;;;;;;;22.32;60.39;100135.03;5028822;28;20456;-75
2022/06/25 08:44:13;;;;;;;1.27;0.53;;;;;;;22.33;60.10;100131.16;5034083;28;20498;-76
2022/06/25 08:46:39;;;;;;;0.70;0.70;;;;;;;22.44;60.18;100135.13;5048774;28;20509;-76
2022/06/25 08:49:05;;;;;;;1.50;0.50;;;;;;;22.57;60.08;100134.09;5026109;28;20383;-76
2022/06/25 08:51:32;;;;;;;0.87;0.50;;;;;;;22.66;59.64;100129.38;5032776;28;20875;-76
2022/06/25 08:53:59;;;;;;;3.33;0.70;;;;;;;22.75;58.04;100132.91;5034155;28;20482;-75
2022/06/25 08:56:26;;;;;;;0.77;0.65;;;;;;;22.87;57.52;100134.94;5048737;28;20395;-75
2022/06/25 08:58:51;;;;;;;1.33;0.50;;;;;;;22.96;57.40;100138.47;5033960;28;20427;-76
2022/06/25 09:01:16;;;;;;;0.43;0.43;;;;;;;23.08;57.10;100133.84;5033827;28;20856;-76
2022/06/25 09:03:43;;;;;;;0.43;0.43;;;;;;;23.22;56.80;100134.38;5033736;28;20407;-76
2022/06/25 09:06:13;;;;;;;2.80;0.75;;;;;;;23.36;57.38;100127.75;5031624;28;20392;-76
2022/06/25 09:08:41;;;;;;;0.60;0.60;;;;;;;23.37;57.04;100127.44;5049164;28;20754;-75
2022/06/25 09:11:06;;;;;;;1.17;0.60;;;;;;;23.35;56.54;100123.41;5033669;28;20411;-76
2022/06/25 09:13:31;;;;;;;1.77;0.60;;;;;;;23.38;56.53;100114.44;5033801;28;20894;-75
2022/06/25 09:15:56;;;;;;;0.73;0.73;;;;;;;23.55;56.79;100114.28;5032410;28;20391;-75
2022/06/25 09:18:22;;;;;;;0.67;0.67;;;;;;;23.72;56.25;100105.81;5033443;28;20422;-75
2022/06/25 09:21:05;;;;;;;0.60;0.60;;;;;;;23.90;55.65;100104.50;5033603;28;20395;-75
2022/06/25 09:23:33;;;;;;;1.15;0.50;;;;;;;23.99;54.66;100102.47;5032022;28;20422;-75
2022/06/25 09:26:05;;;;;;;0.60;0.60;;;;;;;24.05;54.07;100100.25;5032877;28;20451;-75
2022/06/25 09:28:33;;;;;;;0.70;0.70;;;;;;;24.11;53.97;100099.69;5033419;28;20782;-75
2022/06/25 09:30:58;;;;;;;0.60;0.60;;;;;;;24.24;52.95;100101.38;5032620;28;20419;-75
2022/06/25 09:33:25;;;;;;;0.70;0.60;;;;;;;24.37;53.15;100104.94;5032024;28;20402;-75
2022/06/25 09:35:51;;;;;;;0.60;0.57;;;;;;;24.49;52.77;100093.09;5032623;28;20415;-75
2022/06/25 09:38:17;;;;;;;0.50;0.50;;;;;;;24.61;53.18;100099.41;5033151;28;20399;-75
2022/06/25 09:40:57;;;;;;;5.40;0.90;;;;;;;24.73;53.85;100087.53;5033067;28;20383;-75
2022/06/25 09:43:36;;;;;;;0.68;0.68;;;;;;;24.93;53.59;100089.38;5032671;28;20917;-75
2022/06/25 09:46:04;;;;;;;1.00;0.50;;;;;;;25.12;52.93;100086.81;5005155;28;20394;-75
2022/06/25 09:48:31;;;;;;;3.40;0.60;;;;;;;25.24;52.11;100085.94;5032567;28;20396;-75
2022/06/25 09:51:11;;;;;;;0.50;0.50;;;;;;;25.40;51.74;100080.44;5031686;28;20393;-75
2022/06/25 09:53:47;;;;;;;0.47;0.40;;;;;;;25.62;51.23;100082.72;5032397;28;20402;-75
2022/06/25 09:56:19;;;;;;;1.05;0.52;;;;;;;25.86;50.73;100082.56;5032955;28;20394;-75
2022/06/25 09:58:44;;;;;;;5.97;0.60;;;;;;;26.11;49.93;100080.47;5032871;28;20387;-75
2022/06/25 10:01:15;;;;;;;4.10;0.50;;;;;;;26.62;48.80;100087.72;5030876;28;20406;-76
2022/06/25 10:03:42;;;;;;;2.60;0.60;;;;;;;27.06;47.79;100088.38;5026595;28;20909;-75
2022/06/25 10:06:08;;;;;;;1.83;0.90;;;;;;;26.97;47.73;100089.75;5032593;28;20946;-76
2022/06/25 10:08:35;;;;;;;1.40;0.60;;;;;;;26.49;48.66;100094.53;5032753;28;20462;-75
2022/06/25 10:11:03;;;;;;;2.88;0.40;;;;;;;26.35;48.40;100087.81;5032051;28;20399;-76
2022/06/25 10:13:29;;;;;;;1.30;0.50;;;;;;;25.99;48.61;100092.44;5032584;28;20494;-75
2022/06/25 10:15:55;;;;;;;2.97;0.90;;;;;;;25.61;48.84;100084.69;5032523;28;20486;-76
2022/06/25 10:18:21;;;;;;;1.10;0.40;;;;;;;26.11;48.86;100077.69;5032321;28;20395;-75
2022/06/25 10:20:46;;;;;;;1.50;0.50;;;;;;;29.04;42.76;100074.47;5031987;28;20461;-75
2022/06/25 10:23:14;;;;;;;0.50;0.50;;;;;;;30.74;38.81;100075.09;5032136;28;20446;-75
2022/06/25 10:25:41;;;;;;;0.55;0.40;;;;;;;30.19;39.44;100076.25;5032295;28;20461;-75
2022/06/25 10:28:13;;;;;;;0.70;0.50;;;;;;;29.90;40.31;100072.38;5032382;28;20399;-74
2022/06/25 10:30:50;;;;;;;1.53;0.47;;;;;;;30.46;39.22;100074.09;5031427;28;20509;-76
2022/06/25 10:33:19;;;;;;;2.25;0.90;;;;;;;29.27;41.55;100064.03;5018993;28;20456;-75
2022/06/25 10:35:44;;;;;;;0.52;0.52;;;;;;;28.11;44.54;100074.19;5030888;28;20817;-76
2022/06/25 10:38:24;;;;;;;1.70;0.57;;;;;;;27.43;46.19;100068.47;5032137;28;20442;-76
2022/06/25 10:40:55;;;;;;;0.60;0.60;;;;;;;27.28;46.44;100068.16;5007412;28;20414;-76
2022/06/25 10:43:53;;;;;;;0.60;0.60;;;;;;;30.28;40.19;100054.34;5013368;28;20504;-75
2022/06/25 10:46:19;;;;;;;3.10;0.60;;;;;;;29.01;42.52;100052.91;5012846;28;20451;-76
2022/06/25 10:49:08;;;;;;;0.68;0.60;;;;;;;27.94;44.54;100061.50;5025888;28;20427;-76
2022/06/25 10:51:50;;;;;;;0.50;0.40;;;;;;;27.37;46.80;100050.47;5031676;28;20474;-76
2022/06/25 10:54:22;;;;;;;0.60;0.60;;;;;;;27.27;46.91;100051.81;5031467;28;20747;-76
2022/06/25 10:56:49;;;;;;;0.93;0.40;;;;;;;27.27;47.06;100052.63;5031688;28;20427;-76
2022/06/25 10:59:46;;;;;;;0.52;0.52;;;;;;;27.68;45.82;100041.94;5029952;28;20728;-76
2022/06/25 11:02:15;;;;;;;2.53;0.60;;;;;;;27.99;44.84;100030.56;5028965;28;20391;-76
2022/06/25 11:04:56;;;;;;;0.75;0.50;;;;;;;27.36;46.22;100037.72;5031600;28;20395;-76
2022/06/25 11:07:24;;;;;;;0.57;0.57;;;;;;;26.91;46.81;100028.03;5031564;28;20395;-75
2022/06/25 11:09:57;;;;;;;0.50;0.50;;;;;;;26.72;47.13;100028.78;5046707;28;20395;-75
2022/06/25 11:12:24;;;;;;;1.52;0.63;;;;;;;26.94;47.39;100029.28;5031262;28;20398;-75
2022/06/25 11:15:00;;;;;;;0.65;0.55;;;;;;;29.55;42.46;100022.50;5031459;28;20470;-75
2022/06/25 11:17:25;;;;;;;1.30;0.70;;;;;;;32.16;37.89;100030.84;5030118;28;20460;-75
2022/06/25 11:19:51;;;;;;;2.90;0.60;;;;;;;32.91;35.91;100023.94;5028179;28;20383;-75
2022/06/25 11:22:16;;;;;;;1.10;0.43;;;;;;;32.70;35.34;100024.03;5031246;28;20731;-75
2022/06/25 11:28:47;;;;;;;1.10;0.57;;;;;;;33.54;34.79;100025.69;5031297;28;20434;-75
2022/06/25 11:30:14;;;;;;;0.65;0.50;;;;;;;35.75;30.77;100023.94;5031313;28;20418;-75
2022/06/25 11:32:43;;;;;;;0.43;0.43;;;;;;;36.35;29.65;100033.47;5027019;28;20921;-75
2022/06/25 11:35:09;;;;;;;4.80;0.70;;;;;;;36.66;28.41;100025.66;5031142;28;20863;-74